sensor_id;sensor_type;location;lat;lon;timestamp;P1;durP1;ratioP1;P2;durP2;ratioP2
3095;SDS011;1558;42.700;23.360;2023-04-03T00:00:40;48.90;;;43.63;;
3095;SDS011;1558;42.700;23.360;2023-04-03T00:03:08;43.53;;;39.03;;
3095;SDS011;1558;42.700;23.360;2023-04-03T00:05:35;22.43;;;19.87;;
3095;SDS011;1558;42.700;23.360;2023-04-03T00:08:05;20.00;;;17.03;;
3095;SDS011;1558;42.700;23.360;2023-04-03T00:10:34;21.17;;;18.73;;
3095;SDS011;1558;42.700;23.360;2023-04-03T00:13:03;33.50;;;30.07;;
3095;SDS011;1558;42.700;23.360;2023-04-03T00:15:31;46.83;;;41.93;;
3095;SDS011;1558;42.700;23.360;2023-04-03T00:17:59;33.40;;;30.03;;
3095;SDS011;1558;42.700;23.360;2023-04-03T00:20:27;26.03;;;23.40;;
3095;SDS011;1558;42.700;23.360;2023-04-03T00:22:56;22.37;;;20.17;;
3095;SDS011;1558;42.700;23.360;2023-04-03T00:25:25;31.20;;;28.03;;
3095;SDS011;1558;42.700;23.360;2023-04-03T00:27:53;33.03;;;29.90;;
3095;SDS011;1558;42.700;23.360;2023-04-03T00:30:21;29.47;;;26.47;;
3095;SDS011;1558;42.700;23.360;2023-04-03T00:32:49;26.00;;;23.33;;
3095;SDS011;1558;42.700;23.360;2023-04-03T00:35:19;25.30;;;21.67;;
3095;SDS011;1558;42.700;23.360;2023-04-03T00:37:48;17.83;;;15.90;;
3095;SDS011;1558;42.700;23.360;2023-04-03T00:40:18;28.47;;;24.87;;
3095;SDS011;1558;42.700;23.360;2023-04-03T00:42:48;23.87;;;21.17;;
3095;SDS011;1558;42.700;23.360;2023-04-03T00:48:10;35.67;;;29.33;;
3095;SDS011;1558;42.700;23.360;2023-04-03T00:50:41;28.67;;;24.10;;
3095;SDS011;1558;42.700;23.360;2023-04-03T00:53:11;25.43;;;22.70;;
3095;SDS011;1558;42.700;23.360;2023-04-03T00:55:41;26.73;;;23.90;;
3095;SDS011;1558;42.700;23.360;2023-04-03T00:58:12;24.07;;;21.43;;
3095;SDS011;1558;42.700;23.360;2023-04-03T01:00:43;24.73;;;21.67;;
3095;SDS011;1558;42.700;23.360;2023-04-03T01:03:17;24.40;;;21.40;;
3095;SDS011;1558;42.700;23.360;2023-04-03T01:05:46;22.97;;;20.60;;
3095;SDS011;1558;42.700;23.360;2023-04-03T01:08:14;22.27;;;20.07;;
3095;SDS011;1558;42.700;23.360;2023-04-03T01:10:42;22.50;;;20.10;;
3095;SDS011;1558;42.700;23.360;2023-04-03T01:13:20;23.00;;;20.50;;
3095;SDS011;1558;42.700;23.360;2023-04-03T01:15:52;21.57;;;19.20;;
3095;SDS011;1558;42.700;23.360;2023-04-03T01:18:20;17.93;;;15.87;;
3095;SDS011;1558;42.700;23.360;2023-04-03T01:23:58;17.87;;;15.10;;
3095;SDS011;1558;42.700;23.360;2023-04-03T01:26:34;16.27;;;14.43;;
3095;SDS011;1558;42.700;23.360;2023-04-03T01:29:04;20.40;;;13.43;;
3095;SDS011;1558;42.700;23.360;2023-04-03T01:31:39;16.10;;;13.93;;
3095;SDS011;1558;42.700;23.360;2023-04-03T01:34:12;15.13;;;12.67;;
3095;SDS011;1558;42.700;23.360;2023-04-03T01:36:40;14.60;;;12.93;;
3095;SDS011;1558;42.700;23.360;2023-04-03T01:39:09;15.80;;;12.50;;
3095;SDS011;1558;42.700;23.360;2023-04-03T01:41:37;13.33;;;9.77;;
3095;SDS011;1558;42.700;23.360;2023-04-03T01:44:05;10.37;;;7.07;;
3095;SDS011;1558;42.700;23.360;2023-04-03T01:46:33;6.60;;;5.90;;
3095;SDS011;1558;42.700;23.360;2023-04-03T01:49:02;9.30;;;5.70;;
3095;SDS011;1558;42.700;23.360;2023-04-03T01:51:31;8.37;;;5.27;;
3095;SDS011;1558;42.700;23.360;2023-04-03T01:53:59;6.03;;;5.17;;
3095;SDS011;1558;42.700;23.360;2023-04-03T01:56:27;7.07;;;4.97;;
3095;SDS011;1558;42.700;23.360;2023-04-03T01:58:55;8.20;;;5.03;;
3095;SDS011;1558;42.700;23.360;2023-04-03T02:01:22;6.57;;;4.33;;
3095;SDS011;1558;42.700;23.360;2023-04-03T02:03:52;5.10;;;4.60;;
3095;SDS011;1558;42.700;23.360;2023-04-03T02:06:21;5.00;;;4.40;;
3095;SDS011;1558;42.700;23.360;2023-04-03T02:08:49;5.00;;;4.50;;
3095;SDS011;1558;42.700;23.360;2023-04-03T02:11:17;7.30;;;4.60;;
3095;SDS011;1558;42.700;23.360;2023-04-03T02:13:45;6.70;;;4.07;;
3095;SDS011;1558;42.700;23.360;2023-04-03T02:16:12;5.13;;;4.50;;
3095;SDS011;1558;42.700;23.360;2023-04-03T02:18:41;7.13;;;5.30;;
3095;SDS011;1558;42.700;23.360;2023-04-03T02:21:09;10.27;;;5.47;;
3095;SDS011;1558;42.700;23.360;2023-04-03T02:23:38;6.57;;;5.30;;
3095;SDS011;1558;42.700;23.360;2023-04-03T02:26:06;6.33;;;5.20;;
3095;SDS011;1558;42.700;23.360;2023-04-03T02:28:36;9.40;;;6.03;;
3095;SDS011;1558;42.700;23.360;2023-04-03T02:31:04;9.63;;;6.63;;
3095;SDS011;1558;42.700;23.360;2023-04-03T02:33:33;7.53;;;6.13;;
3095;SDS011;1558;42.700;23.360;2023-04-03T02:36:03;8.87;;;6.70;;
3095;SDS011;1558;42.700;23.360;2023-04-03T02:38:32;8.07;;;5.80;;
3095;SDS011;1558;42.700;23.360;2023-04-03T02:41:03;6.80;;;5.60;;
3095;SDS011;1558;42.700;23.360;2023-04-03T02:43:32;11.53;;;6.77;;
3095;SDS011;1558;42.700;23.360;2023-04-03T02:46:00;8.00;;;6.77;;
3095;SDS011;1558;42.700;23.360;2023-04-03T02:48:28;7.70;;;6.07;;
3095;SDS011;1558;42.700;23.360;2023-04-03T02:50:56;13.00;;;6.20;;
3095;SDS011;1558;42.700;23.360;2023-04-03T02:53:24;9.27;;;7.73;;
3095;SDS011;1558;42.700;23.360;2023-04-03T02:55:52;10.77;;;7.17;;
3095;SDS011;1558;42.700;23.360;2023-04-03T02:58:22;9.37;;;7.17;;
3095;SDS011;1558;42.700;23.360;2023-04-03T03:00:50;12.50;;;8.27;;
3095;SDS011;1558;42.700;23.360;2023-04-03T03:03:17;13.50;;;8.27;;
3095;SDS011;1558;42.700;23.360;2023-04-03T03:05:45;14.93;;;8.73;;
3095;SDS011;1558;42.700;23.360;2023-04-03T03:08:14;10.77;;;8.20;;
3095;SDS011;1558;42.700;23.360;2023-04-03T03:10:42;13.80;;;8.53;;
3095;SDS011;1558;42.700;23.360;2023-04-03T03:13:11;16.33;;;9.63;;
3095;SDS011;1558;42.700;23.360;2023-04-03T03:15:41;11.77;;;8.50;;
3095;SDS011;1558;42.700;23.360;2023-04-03T03:18:08;14.10;;;9.60;;
3095;SDS011;1558;42.700;23.360;2023-04-03T03:20:36;12.00;;;9.50;;
3095;SDS011;1558;42.700;23.360;2023-04-03T03:23:04;22.67;;;12.70;;
3095;SDS011;1558;42.700;23.360;2023-04-03T03:25:32;18.27;;;11.27;;
3095;SDS011;1558;42.700;23.360;2023-04-03T03:28:01;19.70;;;12.50;;
3095;SDS011;1558;42.700;23.360;2023-04-03T03:30:29;22.27;;;13.10;;
3095;SDS011;1558;42.700;23.360;2023-04-03T03:32:58;16.90;;;12.20;;
3095;SDS011;1558;42.700;23.360;2023-04-03T03:35:26;17.33;;;11.87;;
3095;SDS011;1558;42.700;23.360;2023-04-03T03:37:54;18.43;;;12.43;;
3095;SDS011;1558;42.700;23.360;2023-04-03T03:40:22;21.10;;;14.60;;
3095;SDS011;1558;42.700;23.360;2023-04-03T03:42:50;25.53;;;16.60;;
3095;SDS011;1558;42.700;23.360;2023-04-03T03:45:18;20.40;;;14.80;;
3095;SDS011;1558;42.700;23.360;2023-04-03T03:47:46;21.17;;;15.10;;
3095;SDS011;1558;42.700;23.360;2023-04-03T03:50:15;20.13;;;15.73;;
3095;SDS011;1558;42.700;23.360;2023-04-03T03:52:43;26.07;;;17.57;;
3095;SDS011;1558;42.700;23.360;2023-04-03T03:55:12;18.83;;;13.87;;
3095;SDS011;1558;42.700;23.360;2023-04-03T03:57:40;20.00;;;13.67;;
3095;SDS011;1558;42.700;23.360;2023-04-03T04:00:08;20.47;;;15.23;;
3095;SDS011;1558;42.700;23.360;2023-04-03T04:02:37;26.17;;;16.87;;
3095;SDS011;1558;42.700;23.360;2023-04-03T04:05:05;26.73;;;17.17;;
3095;SDS011;1558;42.700;23.360;2023-04-03T04:07:35;22.73;;;15.77;;
3095;SDS011;1558;42.700;23.360;2023-04-03T04:10:03;26.00;;;16.17;;
3095;SDS011;1558;42.700;23.360;2023-04-03T04:12:32;27.20;;;15.67;;
3095;SDS011;1558;42.700;23.360;2023-04-03T04:15:01;29.10;;;18.03;;
3095;SDS011;1558;42.700;23.360;2023-04-03T04:17:30;18.47;;;13.73;;
3095;SDS011;1558;42.700;23.360;2023-04-03T04:19:57;18.73;;;13.30;;
3095;SDS011;1558;42.700;23.360;2023-04-03T04:22:25;16.67;;;12.47;;
3095;SDS011;1558;42.700;23.360;2023-04-03T04:24:55;14.93;;;11.60;;
3095;SDS011;1558;42.700;23.360;2023-04-03T04:27:23;14.53;;;11.93;;
3095;SDS011;1558;42.700;23.360;2023-04-03T04:29:51;13.27;;;11.53;;
3095;SDS011;1558;42.700;23.360;2023-04-03T04:32:18;12.80;;;11.40;;
3095;SDS011;1558;42.700;23.360;2023-04-03T04:34:48;17.67;;;12.80;;
3095;SDS011;1558;42.700;23.360;2023-04-03T04:37:16;16.77;;;12.90;;
3095;SDS011;1558;42.700;23.360;2023-04-03T04:39:43;18.97;;;13.50;;
3095;SDS011;1558;42.700;23.360;2023-04-03T04:42:13;17.13;;;11.07;;
3095;SDS011;1558;42.700;23.360;2023-04-03T04:44:43;19.03;;;12.27;;
3095;SDS011;1558;42.700;23.360;2023-04-03T04:47:11;18.63;;;13.87;;
3095;SDS011;1558;42.700;23.360;2023-04-03T04:49:38;21.47;;;14.70;;
3095;SDS011;1558;42.700;23.360;2023-04-03T04:52:06;20.43;;;12.77;;
3095;SDS011;1558;42.700;23.360;2023-04-03T04:54:35;19.10;;;13.27;;
3095;SDS011;1558;42.700;23.360;2023-04-03T04:57:02;25.80;;;14.37;;
3095;SDS011;1558;42.700;23.360;2023-04-03T04:59:32;30.03;;;15.40;;
3095;SDS011;1558;42.700;23.360;2023-04-03T05:02:00;23.13;;;14.40;;
3095;SDS011;1558;42.700;23.360;2023-04-03T05:04:28;19.47;;;12.73;;
3095;SDS011;1558;42.700;23.360;2023-04-03T05:06:56;19.77;;;13.53;;
3095;SDS011;1558;42.700;23.360;2023-04-03T05:09:25;19.13;;;12.70;;
3095;SDS011;1558;42.700;23.360;2023-04-03T05:11:53;26.10;;;16.67;;
3095;SDS011;1558;42.700;23.360;2023-04-03T05:14:22;23.83;;;16.77;;
3095;SDS011;1558;42.700;23.360;2023-04-03T05:16:51;22.43;;;16.00;;
3095;SDS011;1558;42.700;23.360;2023-04-03T05:19:20;24.33;;;16.97;;
3095;SDS011;1558;42.700;23.360;2023-04-03T05:21:48;21.00;;;15.13;;
3095;SDS011;1558;42.700;23.360;2023-04-03T05:24:16;22.83;;;15.87;;
3095;SDS011;1558;42.700;23.360;2023-04-03T05:26:44;23.40;;;17.73;;
3095;SDS011;1558;42.700;23.360;2023-04-03T05:29:12;26.77;;;19.77;;
3095;SDS011;1558;42.700;23.360;2023-04-03T05:31:40;23.30;;;16.30;;
3095;SDS011;1558;42.700;23.360;2023-04-03T05:34:10;23.80;;;15.30;;
3095;SDS011;1558;42.700;23.360;2023-04-03T05:36:39;20.63;;;17.13;;
3095;SDS011;1558;42.700;23.360;2023-04-03T05:39:08;23.73;;;15.40;;
3095;SDS011;1558;42.700;23.360;2023-04-03T05:41:37;18.77;;;15.13;;
3095;SDS011;1558;42.700;23.360;2023-04-03T05:44:05;22.07;;;17.03;;
3095;SDS011;1558;42.700;23.360;2023-04-03T05:46:33;22.30;;;16.50;;
3095;SDS011;1558;42.700;23.360;2023-04-03T05:49:05;30.30;;;18.80;;
3095;SDS011;1558;42.700;23.360;2023-04-03T05:51:38;30.43;;;20.40;;
3095;SDS011;1558;42.700;23.360;2023-04-03T05:54:18;27.90;;;23.93;;
3095;SDS011;1558;42.700;23.360;2023-04-03T05:56:49;36.67;;;32.87;;
3095;SDS011;1558;42.700;23.360;2023-04-03T05:59:17;41.53;;;32.20;;
3095;SDS011;1558;42.700;23.360;2023-04-03T06:01:46;36.13;;;32.37;;
3095;SDS011;1558;42.700;23.360;2023-04-03T06:04:14;34.90;;;31.27;;
3095;SDS011;1558;42.700;23.360;2023-04-03T06:06:45;35.60;;;27.43;;
3095;SDS011;1558;42.700;23.360;2023-04-03T06:09:15;38.67;;;26.33;;
3095;SDS011;1558;42.700;23.360;2023-04-03T06:11:45;26.60;;;23.17;;
3095;SDS011;1558;42.700;23.360;2023-04-03T06:14:14;28.13;;;21.17;;
3095;SDS011;1558;42.700;23.360;2023-04-03T06:16:45;31.63;;;25.87;;
3095;SDS011;1558;42.700;23.360;2023-04-03T06:19:13;35.07;;;23.93;;
3095;SDS011;1558;42.700;23.360;2023-04-03T06:21:41;35.60;;;24.80;;
3095;SDS011;1558;42.700;23.360;2023-04-03T06:24:11;33.13;;;30.10;;
3095;SDS011;1558;42.700;23.360;2023-04-03T06:26:42;37.47;;;33.70;;
3095;SDS011;1558;42.700;23.360;2023-04-03T06:29:10;39.90;;;36.10;;
3095;SDS011;1558;42.700;23.360;2023-04-03T06:31:38;38.23;;;34.87;;
3095;SDS011;1558;42.700;23.360;2023-04-03T06:34:08;39.70;;;35.37;;
3095;SDS011;1558;42.700;23.360;2023-04-03T06:36:41;37.80;;;34.17;;
3095;SDS011;1558;42.700;23.360;2023-04-03T06:39:13;29.73;;;27.07;;
3095;SDS011;1558;42.700;23.360;2023-04-03T06:41:43;32.13;;;28.80;;
3095;SDS011;1558;42.700;23.360;2023-04-03T06:44:11;30.13;;;27.43;;
3095;SDS011;1558;42.700;23.360;2023-04-03T06:46:42;27.70;;;25.00;;
3095;SDS011;1558;42.700;23.360;2023-04-03T06:49:11;26.20;;;20.70;;
3095;SDS011;1558;42.700;23.360;2023-04-03T06:51:41;21.00;;;18.87;;
3095;SDS011;1558;42.700;23.360;2023-04-03T06:54:10;23.13;;;19.70;;
3095;SDS011;1558;42.700;23.360;2023-04-03T06:56:39;20.57;;;17.83;;
3095;SDS011;1558;42.700;23.360;2023-04-03T06:59:08;20.53;;;18.33;;
3095;SDS011;1558;42.700;23.360;2023-04-03T07:01:37;23.70;;;18.67;;
3095;SDS011;1558;42.700;23.360;2023-04-03T07:04:08;26.43;;;20.63;;
3095;SDS011;1558;42.700;23.360;2023-04-03T07:06:39;22.40;;;19.70;;
3095;SDS011;1558;42.700;23.360;2023-04-03T07:09:08;24.07;;;20.67;;
3095;SDS011;1558;42.700;23.360;2023-04-03T07:11:37;23.83;;;19.37;;
3095;SDS011;1558;42.700;23.360;2023-04-03T07:14:06;23.47;;;18.70;;
3095;SDS011;1558;42.700;23.360;2023-04-03T07:16:35;24.13;;;18.40;;
3095;SDS011;1558;42.700;23.360;2023-04-03T07:19:06;21.80;;;19.33;;
3095;SDS011;1558;42.700;23.360;2023-04-03T07:21:35;24.40;;;20.27;;
3095;SDS011;1558;42.700;23.360;2023-04-03T07:24:03;32.10;;;21.10;;
3095;SDS011;1558;42.700;23.360;2023-04-03T07:26:34;25.50;;;19.87;;
3095;SDS011;1558;42.700;23.360;2023-04-03T07:29:02;27.30;;;20.93;;
3095;SDS011;1558;42.700;23.360;2023-04-03T07:31:31;30.80;;;21.00;;
3095;SDS011;1558;42.700;23.360;2023-04-03T07:34:00;24.63;;;20.10;;
3095;SDS011;1558;42.700;23.360;2023-04-03T07:36:28;23.53;;;19.73;;
3095;SDS011;1558;42.700;23.360;2023-04-03T07:38:56;27.03;;;19.80;;
3095;SDS011;1558;42.700;23.360;2023-04-03T07:41:24;29.83;;;20.93;;
3095;SDS011;1558;42.700;23.360;2023-04-03T07:43:52;25.30;;;21.43;;
3095;SDS011;1558;42.700;23.360;2023-04-03T07:46:21;23.27;;;20.77;;
3095;SDS011;1558;42.700;23.360;2023-04-03T07:48:51;22.23;;;19.30;;
3095;SDS011;1558;42.700;23.360;2023-04-03T07:51:20;24.20;;;19.40;;
3095;SDS011;1558;42.700;23.360;2023-04-03T07:53:48;24.53;;;18.43;;
3095;SDS011;1558;42.700;23.360;2023-04-03T07:56:16;21.13;;;18.33;;
3095;SDS011;1558;42.700;23.360;2023-04-03T07:58:47;24.00;;;17.63;;
3095;SDS011;1558;42.700;23.360;2023-04-03T08:01:15;20.00;;;16.20;;
3095;SDS011;1558;42.700;23.360;2023-04-03T08:03:43;23.73;;;17.33;;
3095;SDS011;1558;42.700;23.360;2023-04-03T08:06:12;22.77;;;16.80;;
3095;SDS011;1558;42.700;23.360;2023-04-03T08:08:45;24.43;;;17.13;;
3095;SDS011;1558;42.700;23.360;2023-04-03T08:11:13;29.60;;;19.10;;
3095;SDS011;1558;42.700;23.360;2023-04-03T08:13:41;20.23;;;15.53;;
3095;SDS011;1558;42.700;23.360;2023-04-03T08:16:10;22.00;;;14.23;;
3095;SDS011;1558;42.700;23.360;2023-04-03T08:18:39;17.43;;;14.00;;
3095;SDS011;1558;42.700;23.360;2023-04-03T08:21:08;22.00;;;15.80;;
3095;SDS011;1558;42.700;23.360;2023-04-03T08:23:38;17.30;;;15.50;;
3095;SDS011;1558;42.700;23.360;2023-04-03T08:26:10;21.90;;;14.30;;
3095;SDS011;1558;42.700;23.360;2023-04-03T08:28:39;23.47;;;16.87;;
3095;SDS011;1558;42.700;23.360;2023-04-03T08:31:10;21.20;;;16.53;;
3095;SDS011;1558;42.700;23.360;2023-04-03T08:33:41;23.00;;;17.60;;
3095;SDS011;1558;42.700;23.360;2023-04-03T08:36:16;20.03;;;16.70;;
3095;SDS011;1558;42.700;23.360;2023-04-03T08:38:48;22.93;;;16.23;;
3095;SDS011;1558;42.700;23.360;2023-04-03T08:41:20;20.07;;;16.30;;
3095;SDS011;1558;42.700;23.360;2023-04-03T08:44:07;19.30;;;16.37;;
3095;SDS011;1558;42.700;23.360;2023-04-03T08:46:49;18.53;;;16.13;;
3095;SDS011;1558;42.700;23.360;2023-04-03T08:49:26;24.37;;;18.03;;
3095;SDS011;1558;42.700;23.360;2023-04-03T08:51:59;19.37;;;16.50;;
3095;SDS011;1558;42.700;23.360;2023-04-03T08:54:34;21.63;;;14.63;;
3095;SDS011;1558;42.700;23.360;2023-04-03T08:57:04;17.50;;;15.57;;
3095;SDS011;1558;42.700;23.360;2023-04-03T08:59:34;26.60;;;15.00;;
3095;SDS011;1558;42.700;23.360;2023-04-03T09:02:12;19.73;;;13.67;;
3095;SDS011;1558;42.700;23.360;2023-04-03T09:04:51;14.83;;;13.13;;
3095;SDS011;1558;42.700;23.360;2023-04-03T09:07:21;15.43;;;13.60;;
3095;SDS011;1558;42.700;23.360;2023-04-03T09:09:57;16.87;;;13.63;;
3095;SDS011;1558;42.700;23.360;2023-04-03T09:12:32;16.73;;;14.90;;
3095;SDS011;1558;42.700;23.360;2023-04-03T09:15:06;15.83;;;12.80;;
3095;SDS011;1558;42.700;23.360;2023-04-03T09:17:53;18.43;;;13.20;;
3095;SDS011;1558;42.700;23.360;2023-04-03T09:20:30;17.43;;;14.60;;
3095;SDS011;1558;42.700;23.360;2023-04-03T09:23:11;18.00;;;14.73;;
3095;SDS011;1558;42.700;23.360;2023-04-03T09:25:48;18.37;;;15.90;;
3095;SDS011;1558;42.700;23.360;2023-04-03T09:28:20;20.57;;;15.77;;
3095;SDS011;1558;42.700;23.360;2023-04-03T09:30:49;19.80;;;17.47;;
3095;SDS011;1558;42.700;23.360;2023-04-03T09:33:17;21.77;;;16.80;;
3095;SDS011;1558;42.700;23.360;2023-04-03T09:35:48;25.60;;;19.10;;
3095;SDS011;1558;42.700;23.360;2023-04-03T09:38:18;19.63;;;17.27;;
3095;SDS011;1558;42.700;23.360;2023-04-03T09:40:49;21.63;;;16.27;;
3095;SDS011;1558;42.700;23.360;2023-04-03T09:43:29;19.27;;;16.73;;
3095;SDS011;1558;42.700;23.360;2023-04-03T09:48:49;20.37;;;17.17;;
3095;SDS011;1558;42.700;23.360;2023-04-03T09:51:34;19.83;;;16.13;;
3095;SDS011;1558;42.700;23.360;2023-04-03T09:54:04;21.77;;;16.47;;
3095;SDS011;1558;42.700;23.360;2023-04-03T09:56:54;21.23;;;15.97;;
3095;SDS011;1558;42.700;23.360;2023-04-03T09:59:28;16.57;;;13.40;;
3095;SDS011;1558;42.700;23.360;2023-04-03T10:01:59;17.37;;;14.33;;
3095;SDS011;1558;42.700;23.360;2023-04-03T10:04:36;17.07;;;12.80;;
3095;SDS011;1558;42.700;23.360;2023-04-03T10:09:57;15.43;;;13.30;;
3095;SDS011;1558;42.700;23.360;2023-04-03T10:12:29;14.67;;;12.23;;
3095;SDS011;1558;42.700;23.360;2023-04-03T10:14:59;17.60;;;11.70;;
3095;SDS011;1558;42.700;23.360;2023-04-03T10:17:32;21.53;;;14.27;;
3095;SDS011;1558;42.700;23.360;2023-04-03T10:20:18;18.57;;;15.17;;
3095;SDS011;1558;42.700;23.360;2023-04-03T10:22:56;19.50;;;14.57;;
3095;SDS011;1558;42.700;23.360;2023-04-03T10:25:32;15.90;;;13.23;;
3095;SDS011;1558;42.700;23.360;2023-04-03T10:28:11;17.20;;;13.67;;
3095;SDS011;1558;42.700;23.360;2023-04-03T10:30:47;19.13;;;14.10;;
3095;SDS011;1558;42.700;23.360;2023-04-03T10:33:27;23.70;;;14.93;;
3095;SDS011;1558;42.700;23.360;2023-04-03T10:36:17;21.67;;;15.03;;
3095;SDS011;1558;42.700;23.360;2023-04-03T10:38:55;19.93;;;16.07;;
3095;SDS011;1558;42.700;23.360;2023-04-03T10:41:33;22.80;;;16.77;;
3095;SDS011;1558;42.700;23.360;2023-04-03T10:44:15;17.93;;;14.40;;
3095;SDS011;1558;42.700;23.360;2023-04-03T10:46:57;18.50;;;16.07;;
3095;SDS011;1558;42.700;23.360;2023-04-03T10:49:36;17.50;;;14.23;;
3095;SDS011;1558;42.700;23.360;2023-04-03T10:52:26;21.20;;;14.30;;
3095;SDS011;1558;42.700;23.360;2023-04-03T10:55:08;16.77;;;13.97;;
3095;SDS011;1558;42.700;23.360;2023-04-03T10:57:50;16.90;;;12.17;;
3095;SDS011;1558;42.700;23.360;2023-04-03T11:00:22;14.50;;;11.03;;
3095;SDS011;1558;42.700;23.360;2023-04-03T11:02:58;13.83;;;10.70;;
3095;SDS011;1558;42.700;23.360;2023-04-03T11:05:31;12.97;;;9.60;;
3095;SDS011;1558;42.700;23.360;2023-04-03T11:08:05;13.93;;;10.70;;
3095;SDS011;1558;42.700;23.360;2023-04-03T11:10:40;11.23;;;9.30;;
3095;SDS011;1558;42.700;23.360;2023-04-03T11:13:13;12.33;;;9.07;;
3095;SDS011;1558;42.700;23.360;2023-04-03T11:15:46;9.17;;;8.13;;
3095;SDS011;1558;42.700;23.360;2023-04-03T11:18:15;12.23;;;8.17;;
3095;SDS011;1558;42.700;23.360;2023-04-03T11:20:48;6.83;;;6.17;;
3095;SDS011;1558;42.700;23.360;2023-04-03T11:23:24;8.53;;;7.33;;
3095;SDS011;1558;42.700;23.360;2023-04-03T11:26:08;8.07;;;6.37;;
3095;SDS011;1558;42.700;23.360;2023-04-03T11:28:39;7.50;;;6.40;;
3095;SDS011;1558;42.700;23.360;2023-04-03T11:31:12;8.77;;;5.73;;
3095;SDS011;1558;42.700;23.360;2023-04-03T11:33:54;6.70;;;6.10;;
3095;SDS011;1558;42.700;23.360;2023-04-03T11:36:30;6.57;;;5.90;;
3095;SDS011;1558;42.700;23.360;2023-04-03T11:39:06;9.83;;;8.00;;
3095;SDS011;1558;42.700;23.360;2023-04-03T11:41:44;9.23;;;7.83;;
3095;SDS011;1558;42.700;23.360;2023-04-03T11:44:26;9.47;;;7.40;;
3095;SDS011;1558;42.700;23.360;2023-04-03T11:47:02;8.87;;;7.90;;
3095;SDS011;1558;42.700;23.360;2023-04-03T11:49:52;8.80;;;7.73;;
3095;SDS011;1558;42.700;23.360;2023-04-03T11:55:41;8.40;;;6.97;;
3095;SDS011;1558;42.700;23.360;2023-04-03T11:58:19;7.30;;;6.60;;
3095;SDS011;1558;42.700;23.360;2023-04-03T12:00:49;8.63;;;7.10;;
3095;SDS011;1558;42.700;23.360;2023-04-03T12:12:30;7.40;;;6.03;;
3095;SDS011;1558;42.700;23.360;2023-04-03T12:15:19;6.83;;;6.13;;
3095;SDS011;1558;42.700;23.360;2023-04-03T12:17:52;6.67;;;6.07;;
3095;SDS011;1558;42.700;23.360;2023-04-03T12:23:58;10.30;;;9.20;;
3095;SDS011;1558;42.700;23.360;2023-04-03T12:26:31;11.40;;;10.13;;
3095;SDS011;1558;42.700;23.360;2023-04-03T12:29:15;9.53;;;8.63;;
3095;SDS011;1558;42.700;23.360;2023-04-03T12:31:50;11.50;;;9.77;;
3095;SDS011;1558;42.700;23.360;2023-04-03T12:34:38;13.97;;;11.37;;
3095;SDS011;1558;42.700;23.360;2023-04-03T12:37:21;8.50;;;6.43;;
3095;SDS011;1558;42.700;23.360;2023-04-03T12:40:07;1.87;;;1.67;;
3095;SDS011;1558;42.700;23.360;2023-04-03T12:45:49;1.73;;;1.20;;
3095;SDS011;1558;42.700;23.360;2023-04-03T12:48:22;1.40;;;1.30;;
3095;SDS011;1558;42.700;23.360;2023-04-03T12:50:53;2.17;;;1.97;;
3095;SDS011;1558;42.700;23.360;2023-04-03T12:53:24;0.93;;;0.93;;
3095;SDS011;1558;42.700;23.360;2023-04-03T12:55:57;2.03;;;1.17;;
3095;SDS011;1558;42.700;23.360;2023-04-03T12:58:46;1.23;;;1.17;;
3095;SDS011;1558;42.700;23.360;2023-04-03T13:01:16;2.27;;;1.17;;
3095;SDS011;1558;42.700;23.360;2023-04-03T13:03:47;1.60;;;1.50;;
3095;SDS011;1558;42.700;23.360;2023-04-03T13:06:17;2.93;;;2.03;;
3095;SDS011;1558;42.700;23.360;2023-04-03T13:08:50;1.87;;;1.33;;
3095;SDS011;1558;42.700;23.360;2023-04-03T13:11:19;1.90;;;1.70;;
3095;SDS011;1558;42.700;23.360;2023-04-03T13:13:57;2.73;;;1.53;;
3095;SDS011;1558;42.700;23.360;2023-04-03T13:16:28;3.97;;;2.20;;
3095;SDS011;1558;42.700;23.360;2023-04-03T13:18:57;3.20;;;2.00;;
3095;SDS011;1558;42.700;23.360;2023-04-03T13:21:25;2.10;;;1.27;;
3095;SDS011;1558;42.700;23.360;2023-04-03T13:23:56;2.83;;;1.60;;
3095;SDS011;1558;42.700;23.360;2023-04-03T13:26:40;1.13;;;1.03;;
3095;SDS011;1558;42.700;23.360;2023-04-03T13:29:17;2.23;;;1.93;;
3095;SDS011;1558;42.700;23.360;2023-04-03T13:31:58;2.17;;;1.97;;
3095;SDS011;1558;42.700;23.360;2023-04-03T13:34:29;2.30;;;1.87;;
3095;SDS011;1558;42.700;23.360;2023-04-03T13:37:04;2.87;;;2.10;;
3095;SDS011;1558;42.700;23.360;2023-04-03T13:39:35;3.73;;;1.93;;
3095;SDS011;1558;42.700;23.360;2023-04-03T13:42:14;3.83;;;1.57;;
3095;SDS011;1558;42.700;23.360;2023-04-03T13:44:46;2.27;;;2.10;;
3095;SDS011;1558;42.700;23.360;2023-04-03T13:47:16;2.03;;;1.83;;
3095;SDS011;1558;42.700;23.360;2023-04-03T13:49:58;2.30;;;1.97;;
3095;SDS011;1558;42.700;23.360;2023-04-03T13:52:29;2.80;;;2.43;;
3095;SDS011;1558;42.700;23.360;2023-04-03T13:54:59;2.37;;;2.17;;
3095;SDS011;1558;42.700;23.360;2023-04-03T13:57:33;2.23;;;2.13;;
3095;SDS011;1558;42.700;23.360;2023-04-03T14:02:55;2.13;;;1.83;;
3095;SDS011;1558;42.700;23.360;2023-04-03T14:05:24;2.63;;;2.17;;
3095;SDS011;1558;42.700;23.360;2023-04-03T14:07:53;1.50;;;1.37;;
3095;SDS011;1558;42.700;23.360;2023-04-03T14:10:21;1.67;;;1.57;;
3095;SDS011;1558;42.700;23.360;2023-04-03T14:12:50;2.00;;;1.80;;
3095;SDS011;1558;42.700;23.360;2023-04-03T14:15:18;1.73;;;1.60;;
3095;SDS011;1558;42.700;23.360;2023-04-03T14:17:52;1.50;;;1.40;;
3095;SDS011;1558;42.700;23.360;2023-04-03T14:20:22;2.57;;;1.80;;
3095;SDS011;1558;42.700;23.360;2023-04-03T14:22:52;2.10;;;1.27;;
3095;SDS011;1558;42.700;23.360;2023-04-03T14:25:21;2.40;;;1.80;;
3095;SDS011;1558;42.700;23.360;2023-04-03T14:27:51;3.13;;;2.90;;
3095;SDS011;1558;42.700;23.360;2023-04-03T14:30:21;2.40;;;1.73;;
3095;SDS011;1558;42.700;23.360;2023-04-03T14:32:53;1.53;;;1.43;;
3095;SDS011;1558;42.700;23.360;2023-04-03T14:35:22;2.97;;;2.07;;
3095;SDS011;1558;42.700;23.360;2023-04-03T14:37:52;2.50;;;1.67;;
3095;SDS011;1558;42.700;23.360;2023-04-03T14:40:23;1.80;;;1.63;;
3095;SDS011;1558;42.700;23.360;2023-04-03T14:42:53;1.37;;;1.27;;
3095;SDS011;1558;42.700;23.360;2023-04-03T14:45:23;3.03;;;2.13;;
3095;SDS011;1558;42.700;23.360;2023-04-03T14:47:54;1.70;;;1.60;;
3095;SDS011;1558;42.700;23.360;2023-04-03T14:50:24;2.00;;;1.87;;
3095;SDS011;1558;42.700;23.360;2023-04-03T14:52:54;1.80;;;1.57;;
3095;SDS011;1558;42.700;23.360;2023-04-03T14:55:25;2.33;;;2.17;;
3095;SDS011;1558;42.700;23.360;2023-04-03T14:57:54;2.77;;;2.00;;
3095;SDS011;1558;42.700;23.360;2023-04-03T15:00:22;2.07;;;1.67;;
3095;SDS011;1558;42.700;23.360;2023-04-03T15:02:50;3.47;;;3.17;;
3095;SDS011;1558;42.700;23.360;2023-04-03T15:05:20;3.90;;;2.80;;
3095;SDS011;1558;42.700;23.360;2023-04-03T15:07:49;2.87;;;2.00;;
3095;SDS011;1558;42.700;23.360;2023-04-03T15:10:20;2.33;;;2.13;;
3095;SDS011;1558;42.700;23.360;2023-04-03T15:12:51;2.80;;;1.93;;
3095;SDS011;1558;42.700;23.360;2023-04-03T15:15:20;3.80;;;2.10;;
3095;SDS011;1558;42.700;23.360;2023-04-03T15:17:50;2.93;;;2.27;;
3095;SDS011;1558;42.700;23.360;2023-04-03T15:20:23;2.10;;;1.50;;
3095;SDS011;1558;42.700;23.360;2023-04-03T15:22:52;1.93;;;1.47;;
3095;SDS011;1558;42.700;23.360;2023-04-03T15:25:23;1.57;;;1.47;;
3095;SDS011;1558;42.700;23.360;2023-04-03T15:27:52;2.23;;;1.93;;
3095;SDS011;1558;42.700;23.360;2023-04-03T15:30:21;2.27;;;2.03;;
3095;SDS011;1558;42.700;23.360;2023-04-03T15:32:49;2.53;;;2.30;;
3095;SDS011;1558;42.700;23.360;2023-04-03T15:35:17;2.57;;;2.30;;
3095;SDS011;1558;42.700;23.360;2023-04-03T15:37:47;1.93;;;1.80;;
3095;SDS011;1558;42.700;23.360;2023-04-03T15:40:15;6.03;;;2.53;;